sensor_id;sensor_type;location;lat;lon;timestamp;P1;durP1;ratioP1;P2;durP2;ratioP2
16029;SDS011;34770;49.272;11.070;2023-01-04T00:01:29;15.43;;;11.20;;
16029;SDS011;34770;49.272;11.070;2023-01-04T00:03:55;15.40;;;12.20;;
16029;SDS011;34770;49.272;11.070;2023-01-04T00:06:20;14.37;;;10.83;;
16029;SDS011;34770;49.272;11.070;2023-01-04T00:08:46;19.40;;;12.40;;
16029;SDS011;34770;49.272;11.070;2023-01-04T00:11:16;18.83;;;12.13;;
16029;SDS011;34770;49.272;11.070;2023-01-04T00:13:44;20.23;;;12.43;;
16029;SDS011;34770;49.272;11.070;2023-01-04T00:16:12;15.97;;;11.93;;
16029;SDS011;34770;49.272;11.070;2023-01-04T00:18:43;22.27;;;13.47;;
16029;SDS011;34770;49.272;11.070;2023-01-04T00:21:11;15.70;;;12.70;;
16029;SDS011;34770;49.272;11.070;2023-01-04T00:23:38;20.33;;;13.67;;
16029;SDS011;34770;49.272;11.070;2023-01-04T00:26:14;18.37;;;12.27;;
16029;SDS011;34770;49.272;11.070;2023-01-04T00:28:43;25.47;;;13.10;;
16029;SDS011;34770;49.272;11.070;2023-01-04T00:31:11;21.53;;;13.40;;
16029;SDS011;34770;49.272;11.070;2023-01-04T00:33:38;19.73;;;13.47;;
16029;SDS011;34770;49.272;11.070;2023-01-04T00:36:07;25.87;;;14.43;;
16029;SDS011;34770;49.272;11.070;2023-01-04T00:38:35;19.33;;;13.43;;
16029;SDS011;34770;49.272;11.070;2023-01-04T00:41:01;19.67;;;14.33;;
16029;SDS011;34770;49.272;11.070;2023-01-04T00:43:28;23.53;;;15.73;;
16029;SDS011;34770;49.272;11.070;2023-01-04T00:45:53;25.53;;;16.13;;
16029;SDS011;34770;49.272;11.070;2023-01-04T00:48:20;23.77;;;14.73;;
16029;SDS011;34770;49.272;11.070;2023-01-04T00:50:48;21.90;;;14.57;;
16029;SDS011;34770;49.272;11.070;2023-01-04T00:53:14;25.63;;;16.13;;
16029;SDS011;34770;49.272;11.070;2023-01-04T00:55:40;24.23;;;16.10;;
16029;SDS011;34770;49.272;11.070;2023-01-04T00:58:06;25.53;;;15.67;;
16029;SDS011;34770;49.272;11.070;2023-01-04T01:00:32;28.43;;;17.20;;
16029;SDS011;34770;49.272;11.070;2023-01-04T01:02:59;27.37;;;16.10;;
16029;SDS011;34770;49.272;11.070;2023-01-04T01:05:24;26.23;;;16.07;;
16029;SDS011;34770;49.272;11.070;2023-01-04T01:07:50;23.87;;;15.67;;
16029;SDS011;34770;49.272;11.070;2023-01-04T01:10:16;25.07;;;15.47;;
16029;SDS011;34770;49.272;11.070;2023-01-04T01:12:42;24.80;;;15.53;;
16029;SDS011;34770;49.272;11.070;2023-01-04T01:15:07;26.50;;;16.43;;
16029;SDS011;34770;49.272;11.070;2023-01-04T01:17:33;26.03;;;14.97;;
16029;SDS011;34770;49.272;11.070;2023-01-04T01:20:00;24.73;;;15.70;;
16029;SDS011;34770;49.272;11.070;2023-01-04T01:22:25;24.63;;;15.70;;
16029;SDS011;34770;49.272;11.070;2023-01-04T01:24:51;21.40;;;15.30;;
16029;SDS011;34770;49.272;11.070;2023-01-04T01:27:16;26.70;;;16.80;;
16029;SDS011;34770;49.272;11.070;2023-01-04T01:29:42;24.00;;;16.07;;
16029;SDS011;34770;49.272;11.070;2023-01-04T01:32:08;26.57;;;15.97;;
16029;SDS011;34770;49.272;11.070;2023-01-04T01:34:33;22.60;;;16.30;;
16029;SDS011;34770;49.272;11.070;2023-01-04T01:36:58;29.20;;;16.67;;
16029;SDS011;34770;49.272;11.070;2023-01-04T01:39:24;25.37;;;16.67;;
16029;SDS011;34770;49.272;11.070;2023-01-04T01:41:49;24.63;;;15.87;;
16029;SDS011;34770;49.272;11.070;2023-01-04T01:47:06;23.73;;;15.20;;
16029;SDS011;34770;49.272;11.070;2023-01-04T01:49:37;24.90;;;15.40;;
16029;SDS011;34770;49.272;11.070;2023-01-04T01:52:04;28.50;;;15.77;;
16029;SDS011;34770;49.272;11.070;2023-01-04T01:54:34;21.83;;;14.70;;
16029;SDS011;34770;49.272;11.070;2023-01-04T01:57:05;24.33;;;14.07;;
16029;SDS011;34770;49.272;11.070;2023-01-04T01:59:34;31.07;;;15.33;;
16029;SDS011;34770;49.272;11.070;2023-01-04T02:02:04;24.57;;;14.90;;
16029;SDS011;34770;49.272;11.070;2023-01-04T02:04:30;25.83;;;14.83;;
16029;SDS011;34770;49.272;11.070;2023-01-04T02:06:56;22.40;;;15.23;;
16029;SDS011;34770;49.272;11.070;2023-01-04T02:09:23;25.77;;;16.00;;
16029;SDS011;34770;49.272;11.070;2023-01-04T02:11:49;24.60;;;14.50;;
16029;SDS011;34770;49.272;11.070;2023-01-04T02:14:15;30.43;;;16.63;;
16029;SDS011;34770;49.272;11.070;2023-01-04T02:16:55;26.70;;;16.10;;
16029;SDS011;34770;49.272;11.070;2023-01-04T02:39:23;19.60;;;12.83;;
16029;SDS011;34770;49.272;11.070;2023-01-04T02:44:47;20.13;;;15.07;;
16029;SDS011;34770;49.272;11.070;2023-01-04T02:47:38;21.33;;;13.83;;
16029;SDS011;34770;49.272;11.070;2023-01-04T02:53:34;15.20;;;10.77;;
16029;SDS011;34770;49.272;11.070;2023-01-04T03:01:22;23.30;;;15.13;;
16029;SDS011;34770;49.272;11.070;2023-01-04T03:09:40;20.37;;;13.27;;
16029;SDS011;34770;49.272;11.070;2023-01-04T03:12:13;22.13;;;13.80;;
16029;SDS011;34770;49.272;11.070;2023-01-04T03:15:18;20.33;;;15.23;;
16029;SDS011;34770;49.272;11.070;2023-01-04T03:17:54;22.10;;;15.63;;
16029;SDS011;34770;49.272;11.070;2023-01-04T03:20:24;24.47;;;15.23;;
16029;SDS011;34770;49.272;11.070;2023-01-04T03:22:54;24.37;;;16.60;;
16029;SDS011;34770;49.272;11.070;2023-01-04T03:25:47;17.63;;;11.10;;
16029;SDS011;34770;49.272;11.070;2023-01-04T03:28:37;24.47;;;16.30;;
16029;SDS011;34770;49.272;11.070;2023-01-04T03:34:13;22.27;;;15.20;;
16029;SDS011;34770;49.272;11.070;2023-01-04T03:37:06;25.90;;;17.30;;
16029;SDS011;34770;49.272;11.070;2023-01-04T03:42:47;25.37;;;15.77;;
16029;SDS011;34770;49.272;11.070;2023-01-04T03:45:39;24.50;;;15.70;;
16029;SDS011;34770;49.272;11.070;2023-01-04T03:48:41;26.67;;;15.47;;
16029;SDS011;34770;49.272;11.070;2023-01-04T03:53:59;25.50;;;16.40;;
16029;SDS011;34770;49.272;11.070;2023-01-04T03:56:32;27.57;;;15.97;;
16029;SDS011;34770;49.272;11.070;2023-01-04T03:59:00;22.90;;;14.63;;
16029;SDS011;34770;49.272;11.070;2023-01-04T04:01:26;26.67;;;16.87;;
16029;SDS011;34770;49.272;11.070;2023-01-04T04:03:52;22.77;;;15.60;;
16029;SDS011;34770;49.272;11.070;2023-01-04T04:06:37;23.93;;;15.77;;
16029;SDS011;34770;49.272;11.070;2023-01-04T04:09:21;26.03;;;16.50;;
16029;SDS011;34770;49.272;11.070;2023-01-04T04:11:47;24.10;;;15.27;;
16029;SDS011;34770;49.272;11.070;2023-01-04T04:14:12;18.87;;;12.43;;
16029;SDS011;34770;49.272;11.070;2023-01-04T04:16:38;23.20;;;14.93;;
16029;SDS011;34770;49.272;11.070;2023-01-04T04:19:03;21.63;;;14.30;;
16029;SDS011;34770;49.272;11.070;2023-01-04T04:21:29;24.27;;;15.97;;
16029;SDS011;34770;49.272;11.070;2023-01-04T04:23:54;24.13;;;14.87;;
16029;SDS011;34770;49.272;11.070;2023-01-04T04:26:20;24.77;;;15.53;;
16029;SDS011;34770;49.272;11.070;2023-01-04T04:28:47;20.33;;;13.07;;
16029;SDS011;34770;49.272;11.070;2023-01-04T04:31:12;21.30;;;13.63;;
16029;SDS011;34770;49.272;11.070;2023-01-04T04:33:38;19.73;;;13.40;;
16029;SDS011;34770;49.272;11.070;2023-01-04T04:36:04;19.67;;;12.30;;
16029;SDS011;34770;49.272;11.070;2023-01-04T04:38:30;20.27;;;13.17;;
16029;SDS011;34770;49.272;11.070;2023-01-04T04:40:56;15.97;;;12.67;;
16029;SDS011;34770;49.272;11.070;2023-01-04T04:43:40;18.50;;;12.53;;
16029;SDS011;34770;49.272;11.070;2023-01-04T04:46:05;20.57;;;11.80;;
16029;SDS011;34770;49.272;11.070;2023-01-04T04:48:31;18.83;;;11.27;;
16029;SDS011;34770;49.272;11.070;2023-01-04T04:50:56;18.80;;;11.17;;
16029;SDS011;34770;49.272;11.070;2023-01-04T04:53:22;17.23;;;12.03;;
16029;SDS011;34770;49.272;11.070;2023-01-04T04:55:51;16.50;;;10.93;;
16029;SDS011;34770;49.272;11.070;2023-01-04T04:58:17;17.17;;;11.90;;
16029;SDS011;34770;49.272;11.070;2023-01-04T05:00:43;17.07;;;11.40;;
16029;SDS011;34770;49.272;11.070;2023-01-04T05:03:08;15.47;;;10.90;;
16029;SDS011;34770;49.272;11.070;2023-01-04T05:05:34;18.30;;;11.10;;
16029;SDS011;34770;49.272;11.070;2023-01-04T05:07:59;15.50;;;9.93;;
16029;SDS011;34770;49.272;11.070;2023-01-04T05:10:24;14.43;;;9.63;;
16029;SDS011;34770;49.272;11.070;2023-01-04T05:12:50;16.80;;;10.03;;
16029;SDS011;34770;49.272;11.070;2023-01-04T05:15:29;15.00;;;9.60;;
16029;SDS011;34770;49.272;11.070;2023-01-04T05:17:58;15.17;;;10.50;;
16029;SDS011;34770;49.272;11.070;2023-01-04T05:20:23;17.27;;;9.93;;
16029;SDS011;34770;49.272;11.070;2023-01-04T05:22:49;20.17;;;11.87;;
16029;SDS011;34770;49.272;11.070;2023-01-04T05:25:15;17.70;;;11.07;;
16029;SDS011;34770;49.272;11.070;2023-01-04T05:27:41;15.83;;;9.80;;
16029;SDS011;34770;49.272;11.070;2023-01-04T05:30:06;15.50;;;10.57;;
16029;SDS011;34770;49.272;11.070;2023-01-04T05:32:52;16.50;;;10.10;;
16029;SDS011;34770;49.272;11.070;2023-01-04T05:35:17;20.00;;;12.53;;
16029;SDS011;34770;49.272;11.070;2023-01-04T05:37:43;19.67;;;10.90;;
16029;SDS011;34770;49.272;11.070;2023-01-04T05:40:08;18.07;;;10.60;;
16029;SDS011;34770;49.272;11.070;2023-01-04T05:42:34;19.97;;;11.73;;
16029;SDS011;34770;49.272;11.070;2023-01-04T05:44:59;17.33;;;10.90;;
16029;SDS011;34770;49.272;11.070;2023-01-04T05:47:26;20.40;;;10.97;;
16029;SDS011;34770;49.272;11.070;2023-01-04T05:49:51;19.30;;;10.33;;
16029;SDS011;34770;49.272;11.070;2023-01-04T05:52:18;14.93;;;9.77;;
16029;SDS011;34770;49.272;11.070;2023-01-04T05:54:44;19.00;;;11.30;;
16029;SDS011;34770;49.272;11.070;2023-01-04T05:57:10;18.73;;;10.77;;
16029;SDS011;34770;49.272;11.070;2023-01-04T05:59:35;19.10;;;11.20;;
16029;SDS011;34770;49.272;11.070;2023-01-04T06:02:01;17.10;;;10.97;;
16029;SDS011;34770;49.272;11.070;2023-01-04T06:04:27;17.43;;;10.67;;
16029;SDS011;34770;49.272;11.070;2023-01-04T06:06:53;17.27;;;11.83;;
16029;SDS011;34770;49.272;11.070;2023-01-04T06:09:18;15.17;;;9.87;;
16029;SDS011;34770;49.272;11.070;2023-01-04T06:11:43;17.63;;;10.97;;
16029;SDS011;34770;49.272;11.070;2023-01-04T06:14:09;17.23;;;10.63;;
16029;SDS011;34770;49.272;11.070;2023-01-04T06:16:34;15.67;;;10.07;;
16029;SDS011;34770;49.272;11.070;2023-01-04T06:19:00;15.63;;;10.13;;
16029;SDS011;34770;49.272;11.070;2023-01-04T06:21:26;16.73;;;10.10;;
16029;SDS011;34770;49.272;11.070;2023-01-04T06:23:51;18.60;;;9.97;;
16029;SDS011;34770;49.272;11.070;2023-01-04T06:26:17;17.77;;;11.43;;
16029;SDS011;34770;49.272;11.070;2023-01-04T06:28:43;15.80;;;10.70;;
16029;SDS011;34770;49.272;11.070;2023-01-04T06:31:09;22.60;;;12.97;;
16029;SDS011;34770;49.272;11.070;2023-01-04T06:33:35;19.60;;;10.57;;
16029;SDS011;34770;49.272;11.070;2023-01-04T06:36:01;19.30;;;12.30;;
16029;SDS011;34770;49.272;11.070;2023-01-04T06:38:26;17.73;;;11.10;;
16029;SDS011;34770;49.272;11.070;2023-01-04T06:40:52;17.93;;;11.67;;
16029;SDS011;34770;49.272;11.070;2023-01-04T06:43:18;17.17;;;11.33;;
16029;SDS011;34770;49.272;11.070;2023-01-04T06:45:43;18.93;;;11.40;;
16029;SDS011;34770;49.272;11.070;2023-01-04T06:48:08;21.23;;;12.17;;
16029;SDS011;34770;49.272;11.070;2023-01-04T06:50:34;18.67;;;11.23;;
16029;SDS011;34770;49.272;11.070;2023-01-04T06:53:00;18.23;;;11.93;;
16029;SDS011;34770;49.272;11.070;2023-01-04T06:55:25;20.37;;;11.97;;
16029;SDS011;34770;49.272;11.070;2023-01-04T06:57:51;17.73;;;11.47;;
16029;SDS011;34770;49.272;11.070;2023-01-04T07:00:16;19.33;;;11.83;;
16029;SDS011;34770;49.272;11.070;2023-01-04T07:02:42;19.83;;;11.97;;
16029;SDS011;34770;49.272;11.070;2023-01-04T07:05:07;18.03;;;11.10;;
16029;SDS011;34770;49.272;11.070;2023-01-04T07:07:33;20.73;;;12.13;;
16029;SDS011;34770;49.272;11.070;2023-01-04T07:09:59;27.47;;;16.30;;
16029;SDS011;34770;49.272;11.070;2023-01-04T07:12:24;23.63;;;13.43;;
16029;SDS011;34770;49.272;11.070;2023-01-04T07:14:50;20.83;;;13.07;;
16029;SDS011;34770;49.272;11.070;2023-01-04T07:17:18;20.33;;;13.43;;
16029;SDS011;34770;49.272;11.070;2023-01-04T07:19:44;24.00;;;13.07;;
16029;SDS011;34770;49.272;11.070;2023-01-04T07:22:09;20.83;;;12.93;;
16029;SDS011;34770;49.272;11.070;2023-01-04T07:24:35;20.53;;;12.80;;
16029;SDS011;34770;49.272;11.070;2023-01-04T07:27:01;22.23;;;12.63;;
16029;SDS011;34770;49.272;11.070;2023-01-04T07:29:26;20.63;;;12.20;;
16029;SDS011;34770;49.272;11.070;2023-01-04T07:31:52;18.23;;;13.03;;
16029;SDS011;34770;49.272;11.070;2023-01-04T07:34:19;18.37;;;13.03;;
16029;SDS011;34770;49.272;11.070;2023-01-04T07:36:46;21.30;;;13.30;;
16029;SDS011;34770;49.272;11.070;2023-01-04T07:39:12;20.80;;;12.57;;
16029;SDS011;34770;49.272;11.070;2023-01-04T07:41:38;21.40;;;13.00;;
16029;SDS011;34770;49.272;11.070;2023-01-04T07:44:05;22.80;;;13.03;;
16029;SDS011;34770;49.272;11.070;2023-01-04T07:46:32;18.73;;;11.57;;
16029;SDS011;34770;49.272;11.070;2023-01-04T07:48:58;19.53;;;11.63;;
16029;SDS011;34770;49.272;11.070;2023-01-04T07:51:24;18.67;;;11.93;;
16029;SDS011;34770;49.272;11.070;2023-01-04T07:53:50;20.07;;;11.73;;
16029;SDS011;34770;49.272;11.070;2023-01-04T07:56:15;17.27;;;11.40;;
16029;SDS011;34770;49.272;11.070;2023-01-04T07:58:41;14.03;;;8.47;;
16029;SDS011;34770;49.272;11.070;2023-01-04T08:03:43;15.87;;;11.00;;
16029;SDS011;34770;49.272;11.070;2023-01-04T08:06:10;17.40;;;10.63;;
16029;SDS011;34770;49.272;11.070;2023-01-04T08:08:36;17.63;;;11.07;;
16029;SDS011;34770;49.272;11.070;2023-01-04T08:11:06;18.33;;;11.07;;
16029;SDS011;34770;49.272;11.070;2023-01-04T08:13:33;17.30;;;12.20;;
16029;SDS011;34770;49.272;11.070;2023-01-04T08:15:58;19.07;;;12.23;;
16029;SDS011;34770;49.272;11.070;2023-01-04T08:18:24;25.00;;;14.90;;
16029;SDS011;34770;49.272;11.070;2023-01-04T08:20:49;19.63;;;11.53;;
16029;SDS011;34770;49.272;11.070;2023-01-04T08:23:15;17.70;;;10.57;;
16029;SDS011;34770;49.272;11.070;2023-01-04T08:25:40;15.47;;;10.73;;
16029;SDS011;34770;49.272;11.070;2023-01-04T08:28:06;20.60;;;12.33;;
16029;SDS011;34770;49.272;11.070;2023-01-04T08:30:31;13.20;;;9.63;;
16029;SDS011;34770;49.272;11.070;2023-01-04T08:32:57;18.07;;;10.67;;
16029;SDS011;34770;49.272;11.070;2023-01-04T08:35:22;15.57;;;10.17;;
16029;SDS011;34770;49.272;11.070;2023-01-04T08:37:48;33.17;;;16.97;;
16029;SDS011;34770;49.272;11.070;2023-01-04T08:40:13;28.73;;;16.37;;
16029;SDS011;34770;49.272;11.070;2023-01-04T08:42:39;25.87;;;15.53;;
16029;SDS011;34770;49.272;11.070;2023-01-04T08:45:07;16.33;;;9.77;;
16029;SDS011;34770;49.272;11.070;2023-01-04T08:47:35;33.57;;;17.53;;
16029;SDS011;34770;49.272;11.070;2023-01-04T08:50:10;21.27;;;11.57;;
16029;SDS011;34770;49.272;11.070;2023-01-04T08:52:35;16.60;;;10.87;;
16029;SDS011;34770;49.272;11.070;2023-01-04T08:55:00;15.03;;;9.57;;
16029;SDS011;34770;49.272;11.070;2023-01-04T08:57:26;13.37;;;9.90;;
16029;SDS011;34770;49.272;11.070;2023-01-04T08:59:51;16.10;;;9.80;;
16029;SDS011;34770;49.272;11.070;2023-01-04T09:04:42;17.93;;;11.10;;
16029;SDS011;34770;49.272;11.070;2023-01-04T09:07:07;14.40;;;8.93;;
16029;SDS011;34770;49.272;11.070;2023-01-04T09:09:32;12.43;;;9.03;;
16029;SDS011;34770;49.272;11.070;2023-01-04T09:11:58;17.47;;;10.13;;
16029;SDS011;34770;49.272;11.070;2023-01-04T09:14:23;13.73;;;9.13;;
16029;SDS011;34770;49.272;11.070;2023-01-04T09:16:48;17.67;;;9.70;;
16029;SDS011;34770;49.272;11.070;2023-01-04T09:19:14;13.63;;;8.93;;
16029;SDS011;34770;49.272;11.070;2023-01-04T09:21:39;9.50;;;7.63;;
16029;SDS011;34770;49.272;11.070;2023-01-04T09:24:05;12.43;;;8.43;;
16029;SDS011;34770;49.272;11.070;2023-01-04T09:26:30;13.53;;;9.30;;
16029;SDS011;34770;49.272;11.070;2023-01-04T09:28:56;10.40;;;7.63;;
16029;SDS011;34770;49.272;11.070;2023-01-04T09:31:23;9.37;;;6.67;;
16029;SDS011;34770;49.272;11.070;2023-01-04T09:33:50;9.57;;;5.83;;
16029;SDS011;34770;49.272;11.070;2023-01-04T09:36:16;9.63;;;6.90;;
16029;SDS011;34770;49.272;11.070;2023-01-04T09:38:44;10.10;;;5.57;;
16029;SDS011;34770;49.272;11.070;2023-01-04T09:41:14;7.37;;;5.27;;
16029;SDS011;34770;49.272;11.070;2023-01-04T09:43:48;7.13;;;5.00;;
16029;SDS011;34770;49.272;11.070;2023-01-04T09:49:24;8.43;;;5.68;;
16029;SDS011;34770;49.272;11.070;2023-01-04T09:54:56;7.33;;;5.67;;
16029;SDS011;34770;49.272;11.070;2023-01-04T09:57:24;5.85;;;4.50;;
16029;SDS011;34770;49.272;11.070;2023-01-04T09:59:54;4.43;;;3.85;;
16029;SDS011;34770;49.272;11.070;2023-01-04T10:02:31;5.45;;;4.05;;
16029;SDS011;34770;49.272;11.070;2023-01-04T10:05:07;5.18;;;3.85;;
16029;SDS011;34770;49.272;11.070;2023-01-04T10:07:41;5.15;;;4.13;;
16029;SDS011;34770;49.272;11.070;2023-01-04T10:10:11;5.72;;;4.18;;
16029;SDS011;34770;49.272;11.070;2023-01-04T10:15:26;3.22;;;2.97;;
16029;SDS011;34770;49.272;11.070;2023-01-04T10:18:01;4.75;;;4.28;;
16029;SDS011;34770;49.272;11.070;2023-01-04T10:23:12;5.40;;;4.00;;
16029;SDS011;34770;49.272;11.070;2023-01-04T10:25:47;5.05;;;4.40;;
16029;SDS011;34770;49.272;11.070;2023-01-04T10:35:58;5.25;;;4.43;;
16029;SDS011;34770;49.272;11.070;2023-01-04T10:38:28;3.88;;;3.47;;
16029;SDS011;34770;49.272;11.070;2023-01-04T10:40:57;5.65;;;4.68;;
16029;SDS011;34770;49.272;11.070;2023-01-04T10:43:43;5.28;;;4.25;;
16029;SDS011;34770;49.272;11.070;2023-01-04T10:47:02;6.28;;;4.50;;
16029;SDS011;34770;49.272;11.070;2023-01-04T10:49:07;4.28;;;3.88;;
16029;SDS011;34770;49.272;11.070;2023-01-04T10:54:27;3.05;;;2.78;;
16029;SDS011;34770;49.272;11.070;2023-01-04T10:57:06;5.60;;;4.32;;
16029;SDS011;34770;49.272;11.070;2023-01-04T10:59:54;4.47;;;3.60;;
16029;SDS011;34770;49.272;11.070;2023-01-04T11:02:26;3.90;;;2.60;;
16029;SDS011;34770;49.272;11.070;2023-01-04T11:10:37;3.58;;;3.25;;
16029;SDS011;34770;49.272;11.070;2023-01-04T11:13:08;3.25;;;2.95;;
16029;SDS011;34770;49.272;11.070;2023-01-04T11:15:34;5.72;;;3.65;;
16029;SDS011;34770;49.272;11.070;2023-01-04T11:18:01;2.70;;;2.50;;
16029;SDS011;34770;49.272;11.070;2023-01-04T11:20:28;3.72;;;2.80;;
16029;SDS011;34770;49.272;11.070;2023-01-04T11:23:00;2.88;;;2.55;;
16029;SDS011;34770;49.272;11.070;2023-01-04T11:25:31;2.90;;;2.70;;
16029;SDS011;34770;49.272;11.070;2023-01-04T11:28:23;4.03;;;3.28;;
16029;SDS011;34770;49.272;11.070;2023-01-04T11:30:52;4.28;;;3.72;;
16029;SDS011;34770;49.272;11.070;2023-01-04T11:33:22;3.00;;;2.80;;
16029;SDS011;34770;49.272;11.070;2023-01-04T11:35:52;3.80;;;3.17;;
16029;SDS011;34770;49.272;11.070;2023-01-04T11:38:24;4.25;;;3.85;;
16029;SDS011;34770;49.272;11.070;2023-01-04T11:41:04;8.48;;;7.28;;
16029;SDS011;34770;49.272;11.070;2023-01-04T11:43:35;11.60;;;8.18;;
16029;SDS011;34770;49.272;11.070;2023-01-04T11:48:30;4.07;;;3.70;;
16029;SDS011;34770;49.272;11.070;2023-01-04T11:50:56;4.65;;;4.22;;
16029;SDS011;34770;49.272;11.070;2023-01-04T11:53:23;4.38;;;3.97;;
16029;SDS011;34770;49.272;11.070;2023-01-04T11:59:05;3.53;;;3.20;;
16029;SDS011;34770;49.272;11.070;2023-01-04T12:01:41;2.92;;;2.38;;
16029;SDS011;34770;49.272;11.070;2023-01-04T12:04:13;3.72;;;3.42;;
16029;SDS011;34770;49.272;11.070;2023-01-04T12:09:13;7.13;;;6.53;;
16029;SDS011;34770;49.272;11.070;2023-01-04T12:19:24;8.35;;;7.60;;
16029;SDS011;34770;49.272;11.070;2023-01-04T12:21:59;2.95;;;2.67;;
16029;SDS011;34770;49.272;11.070;2023-01-04T12:24:29;4.53;;;3.30;;
16029;SDS011;34770;49.272;11.070;2023-01-04T12:26:56;4.30;;;2.97;;
16029;SDS011;34770;49.272;11.070;2023-01-04T12:31:51;2.47;;;2.25;;
16029;SDS011;34770;49.272;11.070;2023-01-04T12:50:08;2.40;;;2.20;;
16029;SDS011;34770;49.272;11.070;2023-01-04T12:52:46;3.95;;;3.45;;
16029;SDS011;34770;49.272;11.070;2023-01-04T12:55:23;4.65;;;2.20;;
16029;SDS011;34770;49.272;11.070;2023-01-04T12:57:49;3.63;;;3.05;;
16029;SDS011;34770;49.272;11.070;2023-01-04T13:00:15;5.78;;;4.18;;
16029;SDS011;34770;49.272;11.070;2023-01-04T13:02:42;27.02;;;15.90;;
16029;SDS011;34770;49.272;11.070;2023-01-04T13:21:31;7.32;;;5.13;;
16029;SDS011;34770;49.272;11.070;2023-01-04T13:24:18;2.75;;;2.50;;
16029;SDS011;34770;49.272;11.070;2023-01-04T13:26:47;3.65;;;3.35;;
16029;SDS011;34770;49.272;11.070;2023-01-04T13:31:48;3.33;;;2.42;;
16029;SDS011;34770;49.272;11.070;2023-01-04T13:34:20;3.20;;;2.70;;
16029;SDS011;34770;49.272;11.070;2023-01-04T13:39:35;2.55;;;2.15;;
16029;SDS011;34770;49.272;11.070;2023-01-04T13:42:03;2.70;;;2.50;;
16029;SDS011;34770;49.272;11.070;2023-01-04T13:47:17;2.53;;;2.33;;
16029;SDS011;34770;49.272;11.070;2023-01-04T13:49:42;2.97;;;2.08;;
16029;SDS011;34770;49.272;11.070;2023-01-04T13:52:24;3.58;;;2.40;;
16029;SDS011;34770;49.272;11.070;2023-01-04T13:54:56;2.88;;;2.58;;
16029;SDS011;34770;49.272;11.070;2023-01-04T13:57:57;2.90;;;2.55;;
16029;SDS011;34770;49.272;11.070;2023-01-04T14:00:27;2.50;;;2.30;;
16029;SDS011;34770;49.272;11.070;2023-01-04T14:03:06;2.22;;;2.03;;
16029;SDS011;34770;49.272;11.070;2023-01-04T14:05:43;3.72;;;2.33;;
16029;SDS011;34770;49.272;11.070;2023-01-04T14:08:11;21.55;;;13.73;;
16029;SDS011;34770;49.272;11.070;2023-01-04T14:10:42;2.85;;;2.60;;
16029;SDS011;34770;49.272;11.070;2023-01-04T14:13:12;3.45;;;2.67;;
16029;SDS011;34770;49.272;11.070;2023-01-04T14:15:42;31.30;;;15.35;;
16029;SDS011;34770;49.272;11.070;2023-01-04T14:18:25;118.32;;;48.72;;
16029;SDS011;34770;49.272;11.070;2023-01-04T14:20:52;23.88;;;12.20;;
16029;SDS011;34770;49.272;11.070;2023-01-04T14:23:23;80.22;;;36.50;;
16029;SDS011;34770;49.272;11.070;2023-01-04T14:25:51;7.20;;;4.15;;
16029;SDS011;34770;49.272;11.070;2023-01-04T14:36:07;2.55;;;2.35;;
16029;SDS011;34770;49.272;11.070;2023-01-04T14:46:31;2.22;;;2.03;;
16029;SDS011;34770;49.272;11.070;2023-01-04T14:48:57;1.92;;;1.83;;
16029;SDS011;34770;49.272;11.070;2023-01-04T14:51:25;2.28;;;2.08;;
16029;SDS011;34770;49.272;11.070;2023-01-04T14:53:57;3.20;;;2.17;;
16029;SDS011;34770;49.272;11.070;2023-01-04T14:56:23;1.42;;;1.33;;
16029;SDS011;34770;49.272;11.070;2023-01-04T14:58:48;2.55;;;2.15;;
16029;SDS011;34770;49.272;11.070;2023-01-04T15:01:13;2.35;;;1.60;;
16029;SDS011;34770;49.272;11.070;2023-01-04T15:03:39;2.17;;;1.52;;
16029;SDS011;34770;49.272;11.070;2023-01-04T15:06:04;3.35;;;2.90;;
16029;SDS011;34770;49.272;11.070;2023-01-04T15:08:31;3.72;;;2.75;;
16029;SDS011;34770;49.272;11.070;2023-01-04T15:10:56;2.95;;;1.80;;
16029;SDS011;34770;49.272;11.070;2023-01-04T15:13:22;1.73;;;1.63;;
16029;SDS011;34770;49.272;11.070;2023-01-04T15:15:47;2.10;;;1.60;;
16029;SDS011;34770;49.272;11.070;2023-01-04T15:18:16;1.98;;;1.52;;
16029;SDS011;34770;49.272;11.070;2023-01-04T15:20:42;4.22;;;3.15;;
16029;SDS011;34770;49.272;11.070;2023-01-04T15:23:08;23.65;;;16.08;;
16029;SDS011;34770;49.272;11.070;2023-01-04T15:25:34;3.83;;;3.05;;
16029;SDS011;34770;49.272;11.070;2023-01-04T15:28:03;18.67;;;11.07;;
16029;SDS011;34770;49.272;11.070;2023-01-04T15:30:28;11.65;;;8.38;;
16029;SDS011;34770;49.272;11.070;2023-01-04T15:32:54;27.15;;;20.20;;
16029;SDS011;34770;49.272;11.070;2023-01-04T15:35:19;15.93;;;11.68;;
16029;SDS011;34770;49.272;11.070;2023-01-04T15:37:45;5.68;;;3.60;;
16029;SDS011;34770;49.272;11.070;2023-01-04T15:40:11;6.25;;;5.75;;
16029;SDS011;34770;49.272;11.070;2023-01-04T15:42:40;4.70;;;4.07;;
16029;SDS011;34770;49.272;11.070;2023-01-04T15:45:27;1.95;;;1.63;;
16029;SDS011;34770;49.272;11.070;2023-01-04T15:47:55;2.30;;;1.70;;
16029;SDS011;34770;49.272;11.070;2023-01-04T15:50:27;2.50;;;2.30;;
16029;SDS011;34770;49.272;11.070;2023-01-04T15:52:58;2.42;;;2.10;;
16029;SDS011;34770;49.272;11.070;2023-01-04T15:55:23;3.65;;;1.80;;
16029;SDS011;34770;49.272;11.070;2023-01-04T15:57:49;1.73;;;1.52;;
16029;SDS011;34770;49.272;11.070;2023-01-04T16:00:15;1.73;;;1.63;;
16029;SDS011;34770;49.272;11.070;2023-01-04T16:02:40;2.45;;;2.00;;
16029;SDS011;34770;49.272;11.070;2023-01-04T16:05:07;4.20;;;2.10;;
16029;SDS011;34770;49.272;11.070;2023-01-04T16:07:33;2.58;;;2.28;;
16029;SDS011;34770;49.272;11.070;2023-01-04T16:09:59;1.70;;;1.60;;
16029;SDS011;34770;49.272;11.070;2023-01-04T16:12:24;2.33;;;1.92;;
16029;SDS011;34770;49.272;11.070;2023-01-04T16:15:18;5.93;;;2.70;;
16029;SDS011;34770;49.272;11.070;2023-01-04T16:17:45;2.20;;;1.85;;
16029;SDS011;34770;49.272;11.070;2023-01-04T16:20:12;2.78;;;1.95;;
16029;SDS011;34770;49.272;11.070;2023-01-04T16:22:40;2.15;;;1.50;;
16029;SDS011;34770;49.272;11.070;2023-01-04T16:25:06;3.60;;;2.00;;
16029;SDS011;34770;49.272;11.070;2023-01-04T16:27:33;2.20;;;2.00;;
16029;SDS011;34770;49.272;11.070;2023-01-04T16:30:00;3.50;;;1.80;;
16029;SDS011;34770;49.272;11.070;2023-01-04T16:32:26;1.85;;;1.70;;
16029;SDS011;34770;49.272;11.070;2023-01-04T16:34:51;4.30;;;2.80;;
16029;SDS011;34770;49.272;11.070;2023-01-04T16:37:17;3.28;;;2.67;;
16029;SDS011;34770;49.272;11.070;2023-01-04T16:39:43;2.92;;;2.60;;
16029;SDS011;34770;49.272;11.070;2023-01-04T16:42:09;2.35;;;2.13;;
16029;SDS011;34770;49.272;11.070;2023-01-04T16:44:34;5.70;;;4.15;;
16029;SDS011;34770;49.272;11.070;2023-01-04T16:47:02;3.17;;;2.25;;
16029;SDS011;34770;49.272;11.070;2023-01-04T16:49:28;2.72;;;2.40;;
16029;SDS011;34770;49.272;11.070;2023-01-04T16:51:53;2.50;;;2.30;;
16029;SDS011;34770;49.272;11.070;2023-01-04T16:54:18;4.70;;;3.90;;
16029;SDS011;34770;49.272;11.070;2023-01-04T16:56:45;3.33;;;2.30;;
16029;SDS011;34770;49.272;11.070;2023-01-04T16:59:13;2.38;;;2.20;;
16029;SDS011;34770;49.272;11.070;2023-01-04T17:01:42;3.70;;;2.50;;
16029;SDS011;34770;49.272;11.070;2023-01-04T17:04:08;5.00;;;3.90;;